Time;durP1;ratioP1;P1;durP2;ratioP2;P2;SDS_P1;SDS_P2;PMS_P1;PMS_P2;Temp;Humidity;BMP_temperature;BMP_pressure;BME280_temperature;BME280_humidity;BME280_pressure;Samples;Min_cycle;Max_cycle;Signal;HPM_P1;HPM_P2
2023/02/25 00:01:10;;;;;;;10.65;1.88;;;;;;;5.36;100.00;100969.63;5049119;28;20486;-53
2023/02/25 00:03:36;;;;;;;16.52;2.85;;;;;;;5.43;100.00;100966.94;5049647;28;20151;-55
2023/02/25 00:06:03;;;;;;;9.77;1.70;;;;;;;5.38;100.00;100975.69;5048986;28;20107;-58
2023/02/25 00:08:29;;;;;;;10.65;2.20;;;;;;;5.35;100.00;100967.88;5049803;28;20037;-51
2023/02/25 00:10:59;;;;;;;12.73;2.05;;;;;;;5.37;100.00;100973.97;5052328;28;20023;-56
2023/02/25 00:13:25;;;;;;;18.48;3.05;;;;;;;5.39;100.00;100964.38;5048133;28;20371;-54
2023/02/25 00:15:50;;;;;;;15.00;2.72;;;;;;;5.30;100.00;100966.19;5048268;28;20029;-56
2023/02/25 00:18:16;;;;;;;16.60;2.85;;;;;;;5.34;100.00;100960.94;5048654;28;20059;-52
2023/02/25 00:20:41;;;;;;;21.17;3.10;;;;;;;5.32;100.00;100963.56;5049297;28;20215;-55
2023/02/25 00:23:07;;;;;;;26.67;2.50;;;;;;;5.19;100.00;100968.06;5048247;28;20462;-55
2023/02/25 00:25:32;;;;;;;17.50;3.20;;;;;;;5.25;100.00;100968.00;5049384;28;20115;-51
2023/02/25 00:27:57;;;;;;;22.63;2.92;;;;;;;5.32;100.00;100976.63;5065985;28;20033;-53
2023/02/25 00:30:23;;;;;;;21.23;2.53;;;;;;;5.25;100.00;100978.44;5047064;28;20048;-56
2023/02/25 00:32:49;;;;;;;23.33;3.08;;;;;;;5.09;100.00;100979.47;5047437;28;20083;-56
2023/02/25 00:35:14;;;;;;;16.73;2.85;;;;;;;5.11;100.00;100975.06;5048769;28;20159;-54
2023/02/25 00:37:40;;;;;;;16.15;2.75;;;;;;;5.03;100.00;100972.56;5049275;28;20029;-54
2023/02/25 00:40:13;;;;;;;19.63;2.65;;;;;;;5.13;100.00;100979.44;5048575;28;20472;-49
2023/02/25 00:42:39;;;;;;;21.23;2.67;;;;;;;5.16;100.00;100971.56;5029931;28;20029;-52
2023/02/25 00:45:05;;;;;;;18.23;3.08;;;;;;;5.22;100.00;100969.75;5028023;28;20121;-56
2023/02/25 00:47:30;;;;;;;17.70;2.55;;;;;;;5.14;100.00;100977.66;5044121;28;20029;-57
2023/02/25 00:49:56;;;;;;;19.95;2.75;;;;;;;5.19;100.00;100973.28;5049048;28;20032;-56
2023/02/25 00:52:21;;;;;;;13.43;2.00;;;;;;;5.23;100.00;100972.34;5047960;28;20067;-60
2023/02/25 00:54:46;;;;;;;14.25;2.10;;;;;;;5.25;100.00;100978.44;5049361;28;20032;-55
2023/02/25 00:57:12;;;;;;;15.38;2.13;;;;;;;5.12;100.00;100984.66;5046935;28;20077;-56
2023/02/25 00:59:37;;;;;;;17.73;2.53;;;;;;;5.22;100.00;100975.88;5047673;28;20025;-57
2023/02/25 01:02:02;;;;;;;17.75;2.28;;;;;;;5.20;100.00;100985.44;5049068;28;20029;-54
2023/02/25 01:04:28;;;;;;;24.83;3.30;;;;;;;5.33;100.00;100974.88;5031601;28;20348;-55
2023/02/25 01:06:53;;;;;;;15.00;2.55;;;;;;;5.32;100.00;100984.47;5028551;28;20079;-56
2023/02/25 01:09:19;;;;;;;17.98;2.42;;;;;;;5.46;100.00;100986.06;5029139;28;20783;-52
2023/02/25 01:11:46;;;;;;;13.43;2.47;;;;;;;5.40;100.00;100992.25;5029038;28;20025;-59
2023/02/25 01:14:18;;;;;;;14.30;2.53;;;;;;;5.50;100.00;100998.22;5028218;28;21087;-54
2023/02/25 01:16:44;;;;;;;15.88;2.58;;;;;;;5.59;100.00;100992.91;5040131;28;20089;-54
2023/02/25 01:19:18;;;;;;;15.10;2.33;;;;;;;5.61;100.00;101000.75;5067616;28;20514;-54
2023/02/25 01:21:46;;;;;;;13.10;2.08;;;;;;;5.57;100.00;101006.00;5068275;28;20025;-54
2023/02/25 01:24:17;;;;;;;18.30;2.50;;;;;;;5.50;100.00;101000.84;5068350;28;20036;-55
2023/02/25 01:26:44;;;;;;;18.35;2.35;;;;;;;5.47;100.00;101004.34;5050935;28;20040;-53
2023/02/25 01:29:11;;;;;;;21.55;2.35;;;;;;;5.54;100.00;100997.34;5047139;28;20507;-52
2023/02/25 01:31:37;;;;;;;15.98;2.10;;;;;;;5.57;100.00;100989.47;5047519;28;20028;-53
2023/02/25 01:34:04;;;;;;;19.73;2.67;;;;;;;5.61;100.00;100993.78;5058617;28;20036;-52
2023/02/25 01:36:30;;;;;;;14.15;2.25;;;;;;;5.69;100.00;100994.53;5066020;28;20032;-53
2023/02/25 01:38:56;;;;;;;21.65;2.47;;;;;;;5.50;100.00;100996.50;5068184;28;20033;-53
2023/02/25 01:41:26;;;;;;;13.82;3.00;;;;;;;5.54;100.00;100990.34;5067739;28;20039;-56
2023/02/25 01:44:10;;;;;;;26.02;2.90;;;;;;;5.56;100.00;100993.81;5031208;28;20025;-58
2023/02/25 01:46:36;;;;;;;22.85;2.92;;;;;;;5.61;100.00;100991.16;5041368;28;20107;-52
2023/02/25 01:49:06;;;;;;;18.85;3.35;;;;;;;5.51;100.00;100987.75;5046704;28;20021;-55
2023/02/25 01:51:31;;;;;;;;;;;;;;;5.47;100.00;100985.19;5047148;28;20031;-51
2023/02/25 01:53:56;;;;;;;21.88;3.08;;;;;;;5.51;100.00;100992.97;5062566;28;19916;-57
2023/02/25 01:56:24;;;;;;;14.25;2.15;;;;;;;5.49;100.00;100996.50;5047079;28;20017;-58
2023/02/25 01:58:50;;;;;;;20.67;4.10;;;;;;;5.56;100.00;100992.94;5048168;28;20029;-56
2023/02/25 02:01:20;;;;;;;19.48;2.60;;;;;;;5.61;100.00;100983.31;5045729;28;20039;-57
2023/02/25 02:03:46;;;;;;;23.17;2.88;;;;;;;5.67;100.00;100991.09;5045241;28;20025;-54
2023/02/25 02:06:16;;;;;;;17.75;3.35;;;;;;;5.60;100.00;101002.47;5046233;28;20044;-57
2023/02/25 02:08:43;;;;;;;14.63;3.45;;;;;;;5.48;100.00;100995.63;5046996;28;20033;-54
2023/02/25 02:11:08;;;;;;;24.58;3.50;;;;;;;5.43;100.00;101002.66;5046176;28;20030;-56
2023/02/25 02:13:37;;;;;;;16.40;2.72;;;;;;;5.64;100.00;100995.47;5046384;28;20112;-56
2023/02/25 02:16:15;;;;;;;13.48;2.78;;;;;;;5.58;100.00;100988.56;5045401;28;20032;-58
2023/02/25 02:18:46;;;;;;;21.08;3.95;;;;;;;5.47;100.00;100979.97;5045866;28;20098;-57
2023/02/25 02:21:20;;;;;;;18.90;2.90;;;;;;;5.48;100.00;100987.78;5046544;28;20090;-55
2023/02/25 02:23:54;;;;;;;18.45;2.45;;;;;;;5.49;100.00;100992.16;5047157;28;20021;-56
2023/02/25 02:26:43;;;;;;;13.55;2.22;;;;;;;5.57;100.00;100990.31;5047043;28;20079;-55
2023/02/25 02:29:17;;;;;;;17.25;2.58;;;;;;;5.59;100.00;100998.13;5046050;28;20423;-54
2023/02/25 02:32:22;;;;;;;16.92;1.83;;;;;;;5.57;100.00;100994.69;5015341;28;20365;-54
2023/02/25 02:35:06;;;;;;;13.65;2.10;;;;;;;5.47;100.00;100990.41;5008439;28;20096;-55
2023/02/25 02:37:58;;;;;;;16.02;2.40;;;;;;;5.41;100.00;100983.50;5007358;28;20117;-53
2023/02/25 02:41:00;;;;;;;17.45;2.38;;;;;;;5.11;100.00;100985.53;5007370;28;20018;-54
2023/02/25 02:43:34;;;;;;;16.35;2.55;;;;;;;5.25;100.00;100996.75;5006136;28;20049;-56
2023/02/25 02:46:17;;;;;;;15.60;2.20;;;;;;;5.28;100.00;100988.88;5006920;28;20168;-56
2023/02/25 02:48:47;;;;;;;19.42;2.85;;;;;;;5.34;100.00;100994.91;5006464;28;20095;-57
2023/02/25 02:51:20;;;;;;;26.33;2.78;;;;;;;5.27;100.00;100989.72;5005432;28;20025;-55
2023/02/25 02:53:50;;;;;;;13.23;2.65;;;;;;;5.35;100.00;101007.97;5006273;28;20026;-56
2023/02/25 02:56:17;;;;;;;23.33;3.38;;;;;;;5.23;100.00;101024.63;5005772;28;20029;-58
2023/02/25 02:58:49;;;;;;;16.33;2.67;;;;;;;4.89;100.00;101033.59;5005986;28;20061;-57
2023/02/25 03:01:17;;;;;;;12.82;2.25;;;;;;;4.47;100.00;101039.06;5008784;28;20197;-57
2023/02/25 03:03:45;;;;;;;12.65;1.73;;;;;;;4.44;100.00;101031.25;5025829;28;20033;-56
2023/02/25 03:06:22;;;;;;;9.33;1.43;;;;;;;4.38;100.00;101034.75;5026572;28;20033;-58
2023/02/25 03:08:57;;;;;;;16.13;2.72;;;;;;;4.37;100.00;101026.94;5009954;28;20492;-55
2023/02/25 03:11:23;;;;;;;12.18;1.70;;;;;;;4.55;100.00;101013.78;5026247;28;20029;-58
2023/02/25 03:13:49;;;;;;;13.82;2.17;;;;;;;4.64;100.00;101010.25;5008959;28;20032;-56
2023/02/25 03:16:20;;;;;;;15.02;2.35;;;;;;;4.63;100.00;101020.69;5025618;28;20087;-57
2023/02/25 03:19:10;;;;;;;11.50;2.03;;;;;;;4.54;100.00;101012.06;5026831;28;20030;-58
2023/02/25 03:21:46;;;;;;;15.55;1.85;;;;;;;4.58;100.00;101006.81;4998057;28;20041;-54
2023/02/25 03:25:00;;;;;;;14.68;2.60;;;;;;;4.42;100.00;100999.94;5027484;28;20140;-57
2023/02/25 03:27:35;;;;;;;11.90;1.90;;;;;;;4.41;100.00;101015.59;5000266;28;20415;-57
2023/02/25 03:30:11;;;;;;;16.88;3.38;;;;;;;4.53;100.00;101012.06;5025616;28;20419;-55
2023/02/25 03:32:40;;;;;;;19.35;2.00;;;;;;;4.60;100.00;101015.50;5008689;28;20025;-53
2023/02/25 03:35:08;;;;;;;11.68;2.05;;;;;;;4.58;100.00;101012.91;5008949;28;20042;-58
2023/02/25 03:37:36;;;;;;;12.25;2.72;;;;;;;4.64;100.00;101012.00;5026177;28;20448;-57
2023/02/25 03:40:12;;;;;;;9.95;1.73;;;;;;;4.72;100.00;101007.59;5025430;28;20018;-56
2023/02/25 03:42:42;;;;;;;17.67;2.65;;;;;;;4.80;100.00;101003.19;5009181;28;20033;-56
2023/02/25 03:45:10;;;;;;;22.90;3.42;;;;;;;4.86;100.00;100996.19;5024652;28;20041;-56
2023/02/25 03:47:37;;;;;;;22.40;3.25;;;;;;;4.91;100.00;101003.09;5008765;28;20061;-53
2023/02/25 03:50:20;;;;;;;21.83;3.15;;;;;;;4.96;100.00;101013.50;5026275;28;20018;-57
2023/02/25 03:52:46;;;;;;;13.95;2.42;;;;;;;4.91;100.00;101017.91;5009953;28;20048;-58
2023/02/25 03:55:13;;;;;;;23.73;2.65;;;;;;;4.96;100.00;101010.03;5029850;28;20033;-56
2023/02/25 03:57:41;;;;;;;16.90;2.97;;;;;;;4.97;100.00;101015.22;5029362;28;20030;-57
2023/02/25 04:00:16;;;;;;;16.00;2.95;;;;;;;4.98;100.00;101010.88;5029720;28;20118;-54
2023/02/25 04:02:43;;;;;;;23.75;3.38;;;;;;;4.94;100.00;101017.91;5012730;28;20568;-54
2023/02/25 04:05:11;;;;;;;17.50;2.63;;;;;;;4.96;100.00;101018.72;5012411;28;20100;-55
2023/02/25 04:07:37;;;;;;;14.65;3.10;;;;;;;4.90;100.00;101018.78;5029524;28;20371;-54
2023/02/25 04:10:04;;;;;;;20.55;2.88;;;;;;;4.82;100.00;101017.97;5030014;28;20021;-58
2023/02/25 04:12:29;;;;;;;22.85;3.00;;;;;;;4.84;100.00;101008.41;5028994;28;20029;-57
2023/02/25 04:14:55;;;;;;;16.85;2.60;;;;;;;4.87;100.00;101018.78;5029753;28;20384;-57
2023/02/25 04:17:21;;;;;;;21.98;3.25;;;;;;;4.87;100.00;101016.19;5029104;28;20041;-54
2023/02/25 04:19:46;;;;;;;20.35;3.20;;;;;;;4.97;100.00;101017.84;5029899;28;20135;-58
2023/02/25 04:22:11;;;;;;;23.83;2.53;;;;;;;4.97;100.00;101024.84;5011716;28;20025;-56
2023/02/25 04:24:37;;;;;;;25.67;3.65;;;;;;;5.10;100.00;101031.69;5029134;28;20080;-54
2023/02/25 04:27:02;;;;;;;13.57;2.67;;;;;;;5.09;100.00;101034.31;5029183;28;20057;-53
2023/02/25 04:29:28;;;;;;;15.73;2.80;;;;;;;5.12;100.00;101042.13;5028400;28;20060;-59
2023/02/25 04:31:53;;;;;;;16.42;3.13;;;;;;;5.00;100.00;101051.78;5009841;28;20045;-52
2023/02/25 04:34:19;;;;;;;13.10;2.78;;;;;;;4.80;100.00;101047.59;5010392;28;20057;-54
2023/02/25 04:36:45;;;;;;;19.15;3.08;;;;;;;4.88;100.00;101057.94;5022030;28;20075;-52
2023/02/25 04:39:12;;;;;;;23.02;3.30;;;;;;;4.96;100.00;101052.69;5029779;28;20045;-51
2023/02/25 04:41:37;;;;;;;20.13;3.80;;;;;;;4.95;100.00;101052.69;5011180;28;20419;-57
2023/02/25 04:44:04;;;;;;;15.60;2.38;;;;;;;4.98;100.00;101050.94;5028737;28;20037;-55
2023/02/25 04:46:35;;;;;;;16.15;2.55;;;;;;;5.00;100.00;101053.53;5028193;28;20040;-58
2023/02/25 04:49:02;;;;;;;18.00;2.75;;;;;;;5.03;100.00;101056.13;5029875;28;20029;-57
2023/02/25 04:51:27;;;;;;;14.93;3.17;;;;;;;5.08;100.00;101051.72;5028792;28;20037;-53
2023/02/25 04:53:52;;;;;;;22.88;3.05;;;;;;;4.93;100.00;101057.91;5030043;28;20022;-58
2023/02/25 04:56:18;;;;;;;14.38;2.13;;;;;;;4.85;100.00;101054.50;5029837;28;20029;-56
2023/02/25 04:58:43;;;;;;;10.27;2.33;;;;;;;4.86;100.00;101061.44;5028877;28;20494;-51
2023/02/25 05:01:10;;;;;;;15.13;2.47;;;;;;;4.91;100.00;101062.31;5029050;28;20663;-55
2023/02/25 05:03:35;;;;;;;15.70;3.03;;;;;;;4.87;100.00;101058.84;5029195;28;20132;-57
2023/02/25 05:06:01;;;;;;;22.50;2.90;;;;;;;4.78;100.00;101059.75;5028639;28;20109;-56
2023/02/25 05:08:26;;;;;;;20.20;2.28;;;;;;;4.73;100.00;101063.28;5029228;28;20034;-54
2023/02/25 05:10:52;;;;;;;19.98;2.85;;;;;;;4.72;100.00;101061.56;5011355;28;20018;-53
2023/02/25 05:13:18;;;;;;;26.90;3.45;;;;;;;4.66;100.00;101067.66;5029113;28;20686;-50
2023/02/25 05:15:44;;;;;;;19.40;2.90;;;;;;;4.52;100.00;101065.97;5022383;28;20503;-56
2023/02/25 05:18:09;;;;;;;25.73;3.92;;;;;;;4.45;100.00;101066.91;5009069;28;20057;-54
2023/02/25 05:20:43;;;;;;;26.30;3.28;;;;;;;4.41;100.00;101065.19;5008442;28;20022;-56
2023/02/25 05:23:09;;;;;;;13.05;2.70;;;;;;;4.40;100.00;101069.53;5008459;28;20065;-56
2023/02/25 05:25:34;;;;;;;27.52;3.15;;;;;;;4.41;100.00;101057.34;5008446;28;20076;-56
2023/02/25 05:28:00;;;;;;;15.20;2.35;;;;;;;4.62;100.00;101056.38;5007128;28;20388;-55
2023/02/25 05:30:25;;;;;;;21.50;2.80;;;;;;;4.70;100.00;101056.34;5007598;28;20050;-57
2023/02/25 05:32:51;;;;;;;25.90;3.35;;;;;;;4.75;100.00;101057.16;5009230;28;20820;-55
2023/02/25 05:35:16;;;;;;;20.95;2.40;;;;;;;4.72;100.00;101057.19;5022648;28;20021;-56
2023/02/25 05:37:42;;;;;;;25.40;3.20;;;;;;;4.62;100.00;101058.13;5027779;28;20034;-57
2023/02/25 05:40:08;;;;;;;27.05;2.88;;;;;;;4.61;100.00;101059.00;5028593;28;20103;-54
2023/02/25 05:42:34;;;;;;;15.90;2.53;;;;;;;4.68;100.00;101068.53;5028888;28;20018;-55
2023/02/25 05:44:59;;;;;;;21.20;3.55;;;;;;;4.64;100.00;101065.06;5027440;28;20026;-56
2023/02/25 05:47:25;;;;;;;16.90;2.50;;;;;;;4.57;100.00;101067.72;5027837;28;20033;-54
2023/02/25 05:49:51;;;;;;;13.20;2.63;;;;;;;4.47;100.00;101067.78;5028654;28;20460;-54
2023/02/25 05:52:16;;;;;;;21.35;2.78;;;;;;;4.47;100.00;101065.16;5029025;28;20025;-57
2023/02/25 05:54:41;;;;;;;16.33;3.22;;;;;;;4.55;100.00;101065.13;5028611;28;20400;-52
2023/02/25 05:57:07;;;;;;;16.27;3.08;;;;;;;4.48;100.00;101068.66;5027826;28;20051;-54
2023/02/25 05:59:32;;;;;;;20.70;2.75;;;;;;;4.67;100.00;101070.25;5028771;28;20097;-54
2023/02/25 06:01:58;;;;;;;13.88;2.03;;;;;;;4.59;100.00;101055.53;5028328;28;20452;-54
2023/02/25 06:04:23;;;;;;;18.63;2.60;;;;;;;4.64;100.00;101059.84;5009853;28;20030;-51
2023/02/25 06:06:51;;;;;;;20.40;2.20;;;;;;;4.63;100.00;101062.44;5027403;28;20607;-54
2023/02/25 06:09:17;;;;;;;11.35;2.33;;;;;;;4.62;100.00;101064.22;5027686;28;20079;-58
2023/02/25 06:11:43;;;;;;;12.35;1.98;;;;;;;4.63;100.00;101067.66;5027165;28;20029;-52
2023/02/25 06:14:13;;;;;;;9.80;1.80;;;;;;;4.54;100.00;101074.69;5027242;28;20052;-56
2023/02/25 06:16:39;;;;;;;14.38;1.95;;;;;;;4.60;100.00;101070.31;5026130;28;20363;-52
2023/02/25 06:19:07;;;;;;;13.93;2.20;;;;;;;4.59;100.00;101079.00;5001859;28;20468;-57
2023/02/25 06:21:34;;;;;;;10.80;2.00;;;;;;;4.50;100.00;101082.53;5016297;28;20108;-56
2023/02/25 06:24:00;;;;;;;16.45;2.22;;;;;;;4.42;100.00;101086.06;5027399;28;20104;-55
2023/02/25 06:26:26;;;;;;;13.20;2.35;;;;;;;4.37;100.00;101089.56;5026671;28;20029;-53
2023/02/25 06:28:51;;;;;;;18.77;2.38;;;;;;;4.46;100.00;101092.13;5026939;28;20028;-62
2023/02/25 06:31:19;;;;;;;22.95;2.88;;;;;;;4.43;100.00;101092.16;5027321;28;20480;-54
2023/02/25 06:33:45;;;;;;;21.63;2.55;;;;;;;4.37;100.00;101095.63;5027010;28;20126;-53
2023/02/25 06:36:11;;;;;;;24.58;2.60;;;;;;;4.28;100.00;101090.47;5014723;28;20021;-54
2023/02/25 06:38:37;;;;;;;15.20;2.55;;;;;;;4.33;100.00;101098.28;5027403;28;20022;-55
2023/02/25 06:41:07;;;;;;;18.13;2.75;;;;;;;4.29;100.00;101094.81;5023224;28;20097;-53
2023/02/25 06:43:32;;;;;;;19.52;2.80;;;;;;;4.21;100.00;101093.97;5006221;28;20076;-57
2023/02/25 06:45:57;;;;;;;17.42;2.78;;;;;;;4.34;100.00;101102.63;5025198;28;20029;-53
2023/02/25 06:48:23;;;;;;;22.13;2.97;;;;;;;4.37;100.00;101105.22;5027332;28;20021;-57
2023/02/25 06:50:48;;;;;;;20.00;3.25;;;;;;;4.52;100.00;101107.75;5025192;28;20029;-59
2023/02/25 06:53:14;;;;;;;21.75;2.70;;;;;;;4.68;100.00;101132.06;5027379;28;20488;-54
2023/02/25 06:55:39;;;;;;;14.98;2.22;;;;;;;4.64;100.00;101105.97;5027266;28;20041;-55
2023/02/25 06:58:05;;;;;;;14.85;3.10;;;;;;;4.95;100.00;101121.47;5025196;28;20030;-56
2023/02/25 07:00:30;;;;;;;9.10;2.05;;;;;;;4.99;100.00;101120.56;5010096;28;20080;-59
2023/02/25 07:02:56;;;;;;;17.60;2.58;;;;;;;4.98;100.00;101121.44;5027364;28;20018;-55
2023/02/25 07:05:21;;;;;;;17.67;2.30;;;;;;;4.97;100.00;101134.53;5027279;28;20033;-58
2023/02/25 07:07:47;;;;;;;14.02;2.72;;;;;;;4.96;100.00;101131.03;5028314;28;20052;-55
2023/02/25 07:10:12;;;;;;;19.85;2.47;;;;;;;4.98;100.00;101131.91;5009500;28;20049;-53
2023/02/25 07:12:37;;;;;;;17.60;3.00;;;;;;;5.00;100.00;101135.34;5014123;28;20383;-55
2023/02/25 07:15:03;;;;;;;16.85;2.58;;;;;;;5.10;100.00;101135.31;5027278;28;20095;-54
2023/02/25 07:17:29;;;;;;;15.45;2.08;;;;;;;5.05;100.00;101144.03;5013930;28;20097;-55
2023/02/25 07:19:55;;;;;;;23.98;3.55;;;;;;;4.97;100.00;101135.38;5027650;28;20510;-57
2023/02/25 07:22:20;;;;;;;17.73;2.47;;;;;;;5.03;100.00;101140.56;5028170;28;20088;-56
2023/02/25 07:24:45;;;;;;;14.15;2.38;;;;;;;5.06;100.00;101145.75;5009788;28;20029;-55
2023/02/25 07:27:12;;;;;;;9.95;2.08;;;;;;;4.95;100.00;101149.31;5015512;28;20030;-55
2023/02/25 07:29:37;;;;;;;14.85;2.38;;;;;;;4.89;100.00;101148.50;5004501;28;20038;-51
2023/02/25 07:32:03;;;;;;;18.58;2.53;;;;;;;4.93;100.00;101152.81;5031641;28;20087;-59
2023/02/25 07:34:28;;;;;;;16.83;2.30;;;;;;;4.87;100.00;101147.63;5035152;28;20484;-55
2023/02/25 07:36:53;;;;;;;20.65;2.40;;;;;;;4.84;100.00;101158.06;5032372;28;20109;-58
2023/02/25 07:39:19;;;;;;;19.52;3.42;;;;;;;4.85;100.00;101157.19;5031584;28;20029;-55
2023/02/25 07:41:44;;;;;;;23.90;2.72;;;;;;;4.75;100.00;101151.16;5026742;28;20061;-56
2023/02/25 07:44:09;;;;;;;15.80;2.38;;;;;;;4.92;100.00;101152.81;5025406;28;20095;-59
2023/02/25 07:46:35;;;;;;;19.35;2.67;;;;;;;4.98;100.00;101155.41;5030208;28;20033;-56
2023/02/25 07:49:01;;;;;;;19.95;2.83;;;;;;;4.95;100.00;101160.63;5030914;28;20029;-51
2023/02/25 07:51:26;;;;;;;16.58;3.40;;;;;;;4.93;100.00;101163.25;5029515;28;20109;-59
2023/02/25 07:53:53;;;;;;;14.57;2.40;;;;;;;5.12;100.00;101162.28;5027681;28;20467;-58
2023/02/25 07:56:21;;;;;;;13.15;2.53;;;;;;;5.24;100.00;101170.03;5030561;28;20342;-57
2023/02/25 07:58:46;;;;;;;22.80;3.35;;;;;;;5.33;100.00;101163.91;5029200;28;20032;-56
2023/02/25 08:01:26;;;;;;;16.20;3.05;;;;;;;5.44;100.00;101171.66;5030895;28;20025;-61
2023/02/25 08:03:54;;;;;;;24.85;3.38;;;;;;;5.55;100.00;101171.59;5027685;28;20030;-58
2023/02/25 08:06:19;;;;;;;20.08;3.72;;;;;;;5.71;100.00;101176.69;5030900;28;20033;-58
2023/02/25 08:08:45;;;;;;;16.02;3.25;;;;;;;5.89;100.00;101176.53;5030636;28;20027;-58
2023/02/25 08:11:12;;;;;;;17.58;2.75;;;;;;;6.06;100.00;101176.41;5029904;28;20758;-59
2023/02/25 08:13:38;;;;;;;25.83;3.15;;;;;;;6.06;100.00;101175.56;5029342;28;20028;-58
2023/02/25 08:16:08;;;;;;;18.75;3.00;;;;;;;6.08;100.00;101184.22;5029810;28;20029;-57
2023/02/25 08:18:33;;;;;;;20.15;3.35;;;;;;;6.12;100.00;101183.34;5030392;28;20026;-58
2023/02/25 08:20:59;;;;;;;16.65;2.70;;;;;;;6.13;100.00;101185.06;5030126;28;20579;-57
2023/02/25 08:23:25;;;;;;;19.85;2.92;;;;;;;6.16;100.00;101182.44;5027466;28;20073;-58
2023/02/25 08:25:54;;;;;;;22.13;2.60;;;;;;;6.31;100.00;101184.03;5012281;28;20465;-55
2023/02/25 08:28:21;;;;;;;24.88;5.07;;;;;;;6.19;100.00;101189.38;5009649;28;20088;-58
2023/02/25 08:30:47;;;;;;;25.55;3.33;;;;;;;6.36;100.00;101181.34;5010469;28;20049;-55
2023/02/25 08:33:12;;;;;;;19.77;2.60;;;;;;;6.38;100.00;101186.59;4993567;28;20384;-54
2023/02/25 08:35:38;;;;;;;24.58;3.30;;;;;;;6.51;100.00;101193.41;5010543;28;20100;-56
2023/02/25 08:38:04;;;;;;;21.45;3.25;;;;;;;6.75;100.00;101188.78;5010556;28;20053;-54
2023/02/25 08:40:30;;;;;;;30.17;3.47;;;;;;;6.83;100.00;101188.66;5022607;28;20030;-56
2023/02/25 08:42:56;;;;;;;20.10;3.63;;;;;;;7.03;100.00;101195.41;5030844;28;20179;-56
2023/02/25 08:45:21;;;;;;;26.23;3.65;;;;;;;7.22;100.00;101190.75;5028286;28;20535;-58
2023/02/25 08:47:47;;;;;;;18.98;3.58;;;;;;;7.39;100.00;101190.53;5029901;28;20029;-57
2023/02/25 08:50:12;;;;;;;14.95;3.60;;;;;;;7.58;100.00;101188.50;5028578;28;20483;-53
2023/02/25 08:52:38;;;;;;;27.17;3.10;;;;;;;7.37;100.00;101194.06;5028073;28;20030;-58
2023/02/25 08:55:03;;;;;;;20.13;2.95;;;;;;;7.26;99.24;101192.47;5028881;28;20553;-54
2023/02/25 08:57:29;;;;;;;19.10;2.53;;;;;;;7.36;98.65;101197.56;5028784;28;20061;-59
2023/02/25 08:59:55;;;;;;;18.75;3.08;;;;;;;6.98;96.07;101195.44;5027971;28;20419;-55
2023/02/25 09:02:21;;;;;;;17.23;3.03;;;;;;;7.01;95.95;101190.16;5006074;28;20029;-58
2023/02/25 09:04:46;;;;;;;19.00;2.70;;;;;;;6.93;96.22;101210.38;5028063;28;20036;-55
2023/02/25 09:07:15;;;;;;;14.07;2.42;;;;;;;6.82;98.04;101203.53;5027988;28;20424;-52
2023/02/25 09:09:41;;;;;;;23.13;3.28;;;;;;;6.82;98.35;101219.25;5028406;28;20014;-58
2023/02/25 09:12:07;;;;;;;15.70;2.60;;;;;;;6.62;100.00;101210.75;5027812;28;20013;-55
2023/02/25 09:14:33;;;;;;;14.52;3.00;;;;;;;6.93;100.00;101223.47;5010822;28;20047;-59
2023/02/25 09:17:01;;;;;;;16.55;3.05;;;;;;;6.70;100.00;101232.47;5029007;28;20026;-56
2023/02/25 09:19:27;;;;;;;17.45;2.97;;;;;;;6.41;100.00;101234.50;5027333;28;20029;-60
2023/02/25 09:21:53;;;;;;;21.25;3.95;;;;;;;6.77;100.00;101241.16;5010145;28;20058;-54
2023/02/25 09:24:18;;;;;;;15.75;2.83;;;;;;;6.58;100.00;101246.56;5028281;28;20053;-55
2023/02/25 09:26:44;;;;;;;11.85;2.22;;;;;;;6.53;100.00;101254.47;5027426;28;20033;-55
2023/02/25 09:29:10;;;;;;;11.48;2.08;;;;;;;6.55;100.00;101265.81;5009483;28;20037;-56
2023/02/25 09:31:36;;;;;;;15.25;2.25;;;;;;;6.27;100.00;101262.56;5026788;28;20106;-57
2023/02/25 09:34:03;;;;;;;8.00;2.28;;;;;;;6.35;100.00;101252.03;5020163;28;20698;-53
2023/02/25 09:36:29;;;;;;;11.88;1.95;;;;;;;6.20;100.00;101251.28;5027409;28;20422;-52
2023/02/25 09:38:55;;;;;;;10.52;2.00;;;;;;;6.12;100.00;101268.81;5027198;28;20025;-56
2023/02/25 09:41:49;;;;;;;12.65;1.88;;;;;;;6.05;100.00;101268.00;5029097;28;20029;-53
2023/02/25 09:44:18;;;;;;;15.25;2.42;;;;;;;5.88;100.00;101279.44;5007347;28;20544;-55
2023/02/25 09:47:25;;;;;;;12.05;2.50;;;;;;;5.72;100.00;101270.81;4990670;28;20072;-60
2023/02/25 09:50:01;;;;;;;9.95;1.90;;;;;;;5.72;100.00;101275.19;4968899;28;20042;-56
2023/02/25 09:52:30;;;;;;;16.08;2.40;;;;;;;5.82;100.00;101277.69;5007234;28;20030;-56
2023/02/25 09:55:07;;;;;;;18.23;2.42;;;;;;;5.82;100.00;101272.47;5008775;28;20081;-56
2023/02/25 09:57:40;;;;;;;14.70;2.15;;;;;;;5.71;100.00;101284.75;5007769;28;20026;-57
2023/02/25 10:00:10;;;;;;;12.00;1.83;;;;;;;5.97;100.00;101286.34;5008015;28;20064;-57
2023/02/25 10:02:38;;;;;;;11.75;1.95;;;;;;;6.11;100.00;101288.03;5007076;28;20053;-57
2023/02/25 10:05:18;;;;;;;11.05;2.13;;;;;;;6.33;100.00;101283.47;5006639;28;20365;-55
2023/02/25 10:08:22;;;;;;;12.90;1.55;;;;;;;6.44;100.00;101291.19;5008024;28;20495;-61
2023/02/25 10:11:08;;;;;;;8.70;1.65;;;;;;;6.65;100.00;101295.38;5003484;28;20060;-57
2023/02/25 10:13:48;;;;;;;7.70;1.70;;;;;;;6.73;100.00;101292.69;5006579;28;20014;-56
2023/02/25 10:16:14;;;;;;;16.77;1.80;;;;;;;6.93;100.00;101291.59;5009652;28;20033;-58
2023/02/25 10:19:00;;;;;;;7.45;1.98;;;;;;;7.21;100.00;101288.63;5028144;28;20044;-57
2023/02/25 10:21:44;;;;;;;11.52;2.22;;;;;;;7.31;100.00;101295.50;5027547;28;20039;-59
2023/02/25 10:24:20;;;;;;;5.10;1.60;;;;;;;7.43;97.44;101304.06;5028545;28;20464;-59
2023/02/25 10:26:48;;;;;;;15.63;1.83;;;;;;;7.70;94.33;101296.72;5026290;28;20072;-59
2023/02/25 10:29:27;;;;;;;7.45;1.17;;;;;;;7.66;93.29;101301.16;5025848;28;20038;-57
2023/02/25 10:31:58;;;;;;;4.75;1.20;;;;;;;8.00;92.09;101305.03;5010093;28;20041;-59
2023/02/25 10:34:26;;;;;;;8.23;0.88;;;;;;;8.07;91.86;101304.03;5007544;28;20105;-59
2023/02/25 10:36:55;;;;;;;8.48;1.77;;;;;;;8.25;90.76;101309.88;5007201;28;20034;-59
2023/02/25 10:39:21;;;;;;;3.40;1.27;;;;;;;8.22;87.47;101312.56;5007736;28;20034;-55
2023/02/25 10:41:48;;;;;;;3.15;1.15;;;;;;;8.27;89.34;101312.47;5008565;28;20376;-55
2023/02/25 10:44:13;;;;;;;4.47;1.27;;;;;;;7.88;90.86;101323.56;4989148;28;20025;-58
2023/02/25 10:46:42;;;;;;;10.13;1.65;;;;;;;7.37;93.82;101323.38;5023522;28;20525;-55
2023/02/25 10:49:24;;;;;;;5.90;1.40;;;;;;;6.93;97.71;101330.91;5026986;28;20068;-54
2023/02/25 10:52:17;;;;;;;7.25;1.38;;;;;;;7.04;97.76;101333.38;5027544;28;20033;-56
2023/02/25 10:54:52;;;;;;;5.40;1.48;;;;;;;7.26;97.59;101323.53;5006801;28;20496;-59
2023/02/25 10:57:26;;;;;;;7.85;1.20;;;;;;;7.11;98.75;101326.31;5027669;28;20021;-55
2023/02/25 11:00:04;;;;;;;7.93;1.20;;;;;;;6.73;100.00;101325.84;5009362;28;20032;-61
2023/02/25 11:02:30;;;;;;;9.77;1.43;;;;;;;6.99;100.00;101333.47;5028790;28;20040;-57
2023/02/25 11:04:56;;;;;;;21.17;2.08;;;;;;;7.07;100.00;101333.34;5013489;28;20029;-54
2023/02/25 11:07:40;;;;;;;9.70;1.75;;;;;;;7.21;100.00;101338.44;5030567;28;20421;-59
2023/02/25 11:10:18;;;;;;;8.68;1.85;;;;;;;7.11;100.00;101340.31;5030750;28;20040;-55
2023/02/25 11:12:46;;;;;;;5.43;1.40;;;;;;;7.17;100.00;101334.97;5029024;28;20017;-58
2023/02/25 11:15:23;;;;;;;9.67;1.90;;;;;;;7.57;100.00;101332.75;5029679;28;20382;-61
2023/02/25 11:17:50;;;;;;;7.22;1.27;;;;;;;7.53;98.58;101342.41;5011540;28;20280;-56
2023/02/25 11:20:24;;;;;;;3.85;1.15;;;;;;;7.65;94.34;101351.88;5010517;28;20064;-55
2023/02/25 11:22:51;;;;;;;2.42;1.38;;;;;;;7.45;98.62;101357.38;5010676;28;20054;-58
2023/02/25 11:25:23;;;;;;;8.98;1.63;;;;;;;7.66;96.22;101365.84;5011030;28;20104;-57
2023/02/25 11:27:57;;;;;;;4.15;1.10;;;;;;;7.51;92.47;101365.19;5010184;28;20026;-57